Time;durP1;ratioP1;P1;durP2;ratioP2;P2;SDS_P1;SDS_P2;PMS_P1;PMS_P2;Temp;Humidity;BMP_temperature;BMP_pressure;BME280_temperature;BME280_humidity;BME280_pressure;Samples;Min_cycle;Max_cycle;Signal;HPM_P1;HPM_P2
2021/10/05 00:01:43;;;;;;;11.93;9.10;;;;;;;11.78;63.75;95066.91;827177;71;31849;-78
2021/10/05 00:31:18;;;;;;;10.60;8.50;;;;;;;11.48;64.16;95052.28;828074;71;32254;-77
2021/10/05 00:46:43;;;;;;;9.90;8.98;;;;;;;11.43;64.56;95054.41;833894;71;32373;-78
2021/10/05 01:01:35;;;;;;;10.20;9.10;;;;;;;11.35;64.92;95051.08;833984;71;31733;-77
2021/10/05 01:17:09;;;;;;;;;;;;;;;;;;;;;
2021/10/05 02:01:24;;;;;;;10.50;9.40;;;;;;;10.97;65.93;95038.56;833940;71;33182;-79
2021/10/05 02:16:35;;;;;;;11.90;10.15;;;;;;;10.91;66.29;95044.92;826290;71;32708;-79
2021/10/05 02:46:39;;;;;;;;;;;;;;;;;;;;;
2021/10/05 03:17:04;;;;;;;;;;;;;;;;;;;;;
2021/10/05 03:46:29;;;;;;;14.83;12.33;;;;;;;10.74;67.09;95054.48;833880;71;32713;-77
2021/10/05 04:31:16;;;;;;;17.45;14.80;;;;;;;10.42;67.68;95074.64;825724;71;33154;-83
2021/10/05 04:46:07;;;;;;;20.88;15.85;;;;;;;;;;828616;71;29669;-84
2021/10/05 05:01:12;;;;;;;24.92;14.60;;;;;;;10.39;68.78;95102.21;829707;71;31641;-82
2021/10/05 05:31:09;;;;;;;19.27;16.40;;;;;;;16.31;53.89;95120.69;830337;71;30303;-77
2021/10/05 05:46:13;;;;;;;17.55;15.40;;;;;;;18.05;49.84;95115.81;828117;71;31996;-77
2021/10/05 06:01:09;;;;;;;18.87;16.00;;;;;;;20.81;44.07;95117.81;828051;71;30364;-76
2021/10/05 06:16:14;;;;;;;21.02;15.08;;;;;;;22.97;38.37;95119.88;833880;71;33227;-79
2021/10/05 06:31:08;;;;;;;21.30;16.63;;;;;;;23.60;36.11;95120.14;827614;71;30039;-78
2021/10/05 06:46:09;;;;;;;16.73;14.93;;;;;;;22.11;37.62;95115.30;829041;71;30329;-77
2021/10/05 07:01:18;;;;;;;17.75;15.40;;;;;;;20.49;40.79;95112.84;834773;71;32773;-77
2021/10/05 07:16:11;;;;;;;17.48;15.65;;;;;;;19.99;42.35;95098.21;828883;71;29789;-76
2021/10/05 07:31:09;;;;;;;13.28;11.95;;;;;;;20.49;43.45;95112.28;830832;71;29788;-78
2021/10/05 07:46:16;;;;;;;13.03;11.73;;;;;;;20.95;41.40;95112.11;828987;71;32614;-76
2021/10/05 08:01:09;;;;;;;14.25;12.82;;;;;;;21.97;40.09;95095.69;829145;71;30331;-78
2021/10/05 08:16:09;;;;;;;12.15;10.95;;;;;;;22.73;38.69;95096.28;827883;71;30799;-77
2021/10/05 08:31:30;;;;;;;16.70;13.23;;;;;;;23.39;37.99;95097.77;823509;71;33207;-78
2021/10/05 08:46:23;;;;;;;13.20;10.43;;;;;;;24.70;36.49;95089.55;833820;71;32834;-81
2021/10/05 09:16:28;;;;;;;13.50;10.40;;;;;;;24.49;35.56;95059.70;834052;71;33226;-77
2021/10/05 09:31:36;;;;;;;10.50;7.63;;;;;;;24.62;33.99;95053.59;793708;74;32938;-80
2021/10/05 09:46:17;;;;;;;10.10;9.10;;;;;;;23.64;36.86;95053.23;834736;71;30229;-81
2021/10/05 10:01:08;;;;;;;11.23;8.67;;;;;;;22.99;37.90;95050.16;834329;71;29731;-77
2021/10/05 10:16:33;;;;;;;8.00;7.20;;;;;;;23.03;38.56;95005.30;828599;71;32785;-81
2021/10/05 10:31:12;;;;;;;7.30;6.60;;;;;;;23.43;38.20;95022.27;827944;71;30332;-78
2021/10/05 10:46:43;;;;;;;7.80;7.00;;;;;;;23.74;37.63;95006.52;834574;71;32804;-87
2021/10/05 11:01:42;;;;;;;7.90;7.20;;;;;;;23.07;37.21;94956.61;834603;71;32869;-87
2021/10/05 11:31:50;;;;;;;7.70;7.10;;;;;;;22.89;37.07;94975.00;786388;74;32856;-83
2021/10/05 12:16:18;;;;;;;7.85;7.12;;;;;;;22.01;39.94;94941.54;827609;71;33170;-77
2021/10/05 12:31:16;;;;;;;7.70;7.00;;;;;;;21.98;40.63;94940.34;828872;71;32714;-77
2021/10/05 15:16:18;;;;;;;11.03;7.72;;;;;;;18.21;48.61;94960.09;827659;71;32788;-79
2021/10/05 15:31:21;;;;;;;9.90;9.00;;;;;;;17.89;49.64;94960.24;828246;71;33362;-76
2021/10/05 15:46:15;;;;;;;11.30;9.78;;;;;;;17.36;51.58;94964.25;828448;71;32052;-79
2021/10/05 16:01:15;;;;;;;10.88;9.88;;;;;;;16.92;53.02;94965.70;833635;71;32733;-77
2021/10/05 16:16:10;;;;;;;10.82;9.93;;;;;;;16.59;54.00;94981.34;828146;71;29707;-80
2021/10/05 16:31:10;;;;;;;12.63;10.50;;;;;;;16.42;54.57;95008.59;825815;71;30285;-78
2021/10/05 16:46:11;;;;;;;11.88;10.15;;;;;;;16.12;55.41;94993.08;827723;71;31393;-76
2021/10/05 17:01:10;;;;;;;11.88;9.10;;;;;;;15.93;55.99;95011.34;827818;71;30200;-79
2021/10/05 17:16:11;;;;;;;10.93;9.60;;;;;;;15.78;56.46;95015.21;827758;71;30365;-77
2021/10/05 17:31:15;;;;;;;11.45;10.28;;;;;;;15.58;56.94;95026.33;825683;71;32722;-78
2021/10/05 17:46:16;;;;;;;16.10;10.63;;;;;;;15.53;56.98;95013.22;827286;71;32674;-78
2021/10/05 18:01:12;;;;;;;13.15;11.55;;;;;;;15.36;57.40;95017.36;828029;71;32064;-77
2021/10/05 18:16:14;;;;;;;11.95;10.85;;;;;;;15.21;57.65;95017.22;826081;71;32782;-77
2021/10/05 18:31:13;;;;;;;11.60;10.60;;;;;;;15.00;58.42;95010.36;825304;71;33276;-78
2021/10/05 18:46:14;;;;;;;12.30;11.10;;;;;;;14.78;59.26;95020.92;833855;71;32722;-78
2021/10/05 19:01:10;;;;;;;11.05;9.45;;;;;;;14.81;59.00;95019.78;828452;71;29784;-81
2021/10/05 19:16:08;;;;;;;11.10;10.03;;;;;;;14.73;58.74;95032.39;828600;71;30171;-77
2021/10/05 19:31:13;;;;;;;10.93;9.30;;;;;;;14.51;58.65;95044.23;829024;71;32742;-77
2021/10/05 19:46:14;;;;;;;10.20;8.35;;;;;;;14.37;57.33;95035.80;827459;71;32698;-76
2021/10/05 20:01:14;;;;;;;9.95;8.88;;;;;;;14.04;58.51;95045.77;835116;71;32694;-77
2021/10/05 20:16:13;;;;;;;8.53;7.62;;;;;;;13.58;59.08;95065.11;828487;71;32212;-76
2021/10/05 20:31:12;;;;;;;8.68;7.87;;;;;;;13.35;59.35;95074.76;824390;71;30401;-77
2021/10/05 20:46:14;;;;;;;10.23;7.42;;;;;;;13.31;58.58;95076.41;835331;71;32654;-78
2021/10/05 21:16:08;;;;;;;8.53;7.30;;;;;;;13.09;58.18;95102.03;829724;71;29713;-79
2021/10/05 21:31:12;;;;;;;7.83;6.85;;;;;;;12.88;58.65;95117.38;830344;71;31794;-79
2021/10/05 21:46:14;;;;;;;11.18;7.10;;;;;;;12.75;58.82;95114.40;827451;71;32720;-79
2021/10/05 22:01:09;;;;;;;7.40;6.60;;;;;;;12.42;59.30;95115.61;828201;71;29867;-78
2021/10/05 22:16:09;;;;;;;7.33;6.60;;;;;;;12.15;59.32;95077.31;828190;71;30270;-79
2021/10/05 22:31:20;;;;;;;9.05;7.40;;;;;;;12.32;59.96;95146.01;825411;71;32775;-75
2021/10/05 22:46:10;;;;;;;7.55;6.85;;;;;;;12.17;60.71;95143.58;828231;71;30394;-76
2021/10/05 23:01:15;;;;;;;12.55;7.65;;;;;;;12.04;61.81;95159.48;828124;71;32843;-79
2021/10/05 23:16:10;;;;;;;10.20;8.53;;;;;;;11.72;63.45;95146.90;834014;71;30587;-78
2021/10/05 23:31:15;;;;;;;13.53;9.85;;;;;;;11.62;64.70;95159.09;825940;71;32719;-78
2021/10/05 23:46:16;;;;;;;11.20;9.98;;;;;;;11.30;66.19;95157.00;827123;71;32653;-77
